sensor_id;sensor_type;location;lat;lon;timestamp;P1;durP1;ratioP1;P2;durP2;ratioP2
34988;SDS011;21192;40.182;44.516;2023-03-14T00:00:34;29.52;;;11.32;;
34988;SDS011;21192;40.182;44.516;2023-03-14T00:03:00;25.83;;;11.00;;
34988;SDS011;21192;40.182;44.516;2023-03-14T00:05:26;27.95;;;9.70;;
34988;SDS011;21192;40.182;44.516;2023-03-14T00:07:52;25.33;;;10.20;;
34988;SDS011;21192;40.182;44.516;2023-03-14T00:10:18;34.58;;;10.45;;
34988;SDS011;21192;40.182;44.516;2023-03-14T00:12:45;21.50;;;9.80;;
34988;SDS011;21192;40.182;44.516;2023-03-14T00:15:10;23.05;;;9.95;;
34988;SDS011;21192;40.182;44.516;2023-03-14T00:17:37;24.52;;;10.60;;
34988;SDS011;21192;40.182;44.516;2023-03-14T00:20:04;29.17;;;10.77;;
34988;SDS011;21192;40.182;44.516;2023-03-14T00:22:39;28.10;;;10.60;;
34988;SDS011;21192;40.182;44.516;2023-03-14T00:25:07;19.77;;;10.25;;
34988;SDS011;21192;40.182;44.516;2023-03-14T00:27:34;20.77;;;9.77;;
34988;SDS011;21192;40.182;44.516;2023-03-14T00:30:00;23.50;;;10.23;;
34988;SDS011;21192;40.182;44.516;2023-03-14T00:32:26;25.63;;;10.02;;
34988;SDS011;21192;40.182;44.516;2023-03-14T00:34:52;20.98;;;10.10;;
34988;SDS011;21192;40.182;44.516;2023-03-14T00:37:18;23.40;;;9.65;;
34988;SDS011;21192;40.182;44.516;2023-03-14T00:39:44;23.15;;;10.30;;
34988;SDS011;21192;40.182;44.516;2023-03-14T00:42:09;23.05;;;10.02;;
34988;SDS011;21192;40.182;44.516;2023-03-14T00:44:36;21.80;;;10.25;;
34988;SDS011;21192;40.182;44.516;2023-03-14T00:47:01;19.75;;;9.45;;
34988;SDS011;21192;40.182;44.516;2023-03-14T00:49:27;18.95;;;9.18;;
34988;SDS011;21192;40.182;44.516;2023-03-14T00:51:53;23.77;;;9.98;;
34988;SDS011;21192;40.182;44.516;2023-03-14T00:54:19;18.30;;;9.45;;
34988;SDS011;21192;40.182;44.516;2023-03-14T00:56:46;18.98;;;9.60;;
34988;SDS011;21192;40.182;44.516;2023-03-14T00:59:12;27.63;;;10.20;;
34988;SDS011;21192;40.182;44.516;2023-03-14T01:01:38;21.27;;;9.30;;
34988;SDS011;21192;40.182;44.516;2023-03-14T01:04:04;23.77;;;11.00;;
34988;SDS011;21192;40.182;44.516;2023-03-14T01:06:31;22.13;;;10.43;;
34988;SDS011;21192;40.182;44.516;2023-03-14T01:08:57;21.50;;;10.32;;
34988;SDS011;21192;40.182;44.516;2023-03-14T01:11:25;24.70;;;11.48;;
34988;SDS011;21192;40.182;44.516;2023-03-14T01:13:53;22.15;;;11.10;;
34988;SDS011;21192;40.182;44.516;2023-03-14T01:16:20;24.13;;;11.45;;
34988;SDS011;21192;40.182;44.516;2023-03-14T01:18:47;24.45;;;12.00;;
34988;SDS011;21192;40.182;44.516;2023-03-14T01:23:41;23.65;;;11.07;;
34988;SDS011;21192;40.182;44.516;2023-03-14T01:26:09;23.35;;;12.02;;
34988;SDS011;21192;40.182;44.516;2023-03-14T01:28:36;28.60;;;13.23;;
34988;SDS011;21192;40.182;44.516;2023-03-14T01:31:03;25.40;;;13.10;;
34988;SDS011;21192;40.182;44.516;2023-03-14T01:33:33;29.85;;;13.07;;
34988;SDS011;21192;40.182;44.516;2023-03-14T01:35:59;29.35;;;12.85;;
34988;SDS011;21192;40.182;44.516;2023-03-14T01:38:28;24.73;;;12.80;;
34988;SDS011;21192;40.182;44.516;2023-03-14T01:40:54;31.23;;;12.48;;
34988;SDS011;21192;40.182;44.516;2023-03-14T01:43:20;28.00;;;12.55;;
34988;SDS011;21192;40.182;44.516;2023-03-14T01:46:32;25.98;;;12.18;;
34988;SDS011;21192;40.182;44.516;2023-03-14T01:49:04;27.80;;;12.70;;
34988;SDS011;21192;40.182;44.516;2023-03-14T01:51:44;27.23;;;12.50;;
34988;SDS011;21192;40.182;44.516;2023-03-14T01:54:28;29.45;;;12.20;;
34988;SDS011;21192;40.182;44.516;2023-03-14T01:57:04;29.75;;;13.07;;
34988;SDS011;21192;40.182;44.516;2023-03-14T02:00:01;27.55;;;13.23;;
34988;SDS011;21192;40.182;44.516;2023-03-14T02:02:41;27.90;;;13.48;;
34988;SDS011;21192;40.182;44.516;2023-03-14T02:05:15;31.58;;;14.05;;
34988;SDS011;21192;40.182;44.516;2023-03-14T02:07:47;31.75;;;14.20;;
34988;SDS011;21192;40.182;44.516;2023-03-14T02:10:17;26.63;;;13.25;;
34988;SDS011;21192;40.182;44.516;2023-03-14T02:12:46;30.13;;;13.38;;
34988;SDS011;21192;40.182;44.516;2023-03-14T02:15:14;29.75;;;13.15;;
34988;SDS011;21192;40.182;44.516;2023-03-14T02:17:40;26.98;;;11.93;;
34988;SDS011;21192;40.182;44.516;2023-03-14T02:22:38;28.45;;;12.13;;
34988;SDS011;21192;40.182;44.516;2023-03-14T02:27:54;28.88;;;12.88;;
34988;SDS011;21192;40.182;44.516;2023-03-14T02:30:21;23.67;;;10.80;;
34988;SDS011;21192;40.182;44.516;2023-03-14T02:32:52;27.45;;;11.45;;
34988;SDS011;21192;40.182;44.516;2023-03-14T02:35:23;27.13;;;12.10;;
34988;SDS011;21192;40.182;44.516;2023-03-14T02:37:56;24.70;;;11.88;;
34988;SDS011;21192;40.182;44.516;2023-03-14T02:40:23;33.03;;;12.82;;
34988;SDS011;21192;40.182;44.516;2023-03-14T02:42:49;29.10;;;13.02;;
34988;SDS011;21192;40.182;44.516;2023-03-14T02:47:44;26.48;;;11.70;;
34988;SDS011;21192;40.182;44.516;2023-03-14T02:50:17;28.58;;;11.45;;
34988;SDS011;21192;40.182;44.516;2023-03-14T02:52:46;30.02;;;12.93;;
34988;SDS011;21192;40.182;44.516;2023-03-14T02:55:12;25.88;;;12.25;;
34988;SDS011;21192;40.182;44.516;2023-03-14T02:57:38;26.05;;;12.50;;
34988;SDS011;21192;40.182;44.516;2023-03-14T03:00:04;29.40;;;13.63;;
34988;SDS011;21192;40.182;44.516;2023-03-14T03:02:31;36.35;;;13.82;;
34988;SDS011;21192;40.182;44.516;2023-03-14T03:04:57;28.38;;;11.90;;
34988;SDS011;21192;40.182;44.516;2023-03-14T03:07:23;32.03;;;13.68;;
34988;SDS011;21192;40.182;44.516;2023-03-14T03:09:49;29.17;;;14.27;;
34988;SDS011;21192;40.182;44.516;2023-03-14T03:12:15;33.42;;;14.93;;
34988;SDS011;21192;40.182;44.516;2023-03-14T03:14:41;32.50;;;15.18;;
34988;SDS011;21192;40.182;44.516;2023-03-14T03:17:06;33.15;;;16.17;;
34988;SDS011;21192;40.182;44.516;2023-03-14T03:19:33;28.52;;;14.20;;
34988;SDS011;21192;40.182;44.516;2023-03-14T03:21:59;33.50;;;15.05;;
34988;SDS011;21192;40.182;44.516;2023-03-14T03:24:25;33.47;;;14.52;;
34988;SDS011;21192;40.182;44.516;2023-03-14T03:26:51;36.88;;;14.73;;
34988;SDS011;21192;40.182;44.516;2023-03-14T03:29:17;31.88;;;15.75;;
34988;SDS011;21192;40.182;44.516;2023-03-14T03:31:43;28.40;;;13.85;;
34988;SDS011;21192;40.182;44.516;2023-03-14T03:34:10;33.53;;;15.20;;
34988;SDS011;21192;40.182;44.516;2023-03-14T03:36:37;32.92;;;16.02;;
34988;SDS011;21192;40.182;44.516;2023-03-14T03:39:03;36.78;;;15.70;;
34988;SDS011;21192;40.182;44.516;2023-03-14T03:41:29;33.92;;;15.50;;
34988;SDS011;21192;40.182;44.516;2023-03-14T03:43:55;32.42;;;14.75;;
34988;SDS011;21192;40.182;44.516;2023-03-14T03:46:22;35.58;;;14.68;;
34988;SDS011;21192;40.182;44.516;2023-03-14T03:48:48;29.25;;;14.05;;
34988;SDS011;21192;40.182;44.516;2023-03-14T03:51:18;30.90;;;15.35;;
34988;SDS011;21192;40.182;44.516;2023-03-14T03:53:44;30.77;;;14.85;;
34988;SDS011;21192;40.182;44.516;2023-03-14T03:56:10;28.63;;;14.07;;
34988;SDS011;21192;40.182;44.516;2023-03-14T03:58:36;26.25;;;12.70;;
34988;SDS011;21192;40.182;44.516;2023-03-14T04:01:04;26.20;;;13.25;;
34988;SDS011;21192;40.182;44.516;2023-03-14T04:03:31;31.38;;;12.55;;
34988;SDS011;21192;40.182;44.516;2023-03-14T04:06:18;25.10;;;12.38;;
34988;SDS011;21192;40.182;44.516;2023-03-14T04:08:44;26.80;;;12.85;;
34988;SDS011;21192;40.182;44.516;2023-03-14T04:11:09;21.63;;;12.13;;
34988;SDS011;21192;40.182;44.516;2023-03-14T04:13:35;33.38;;;14.05;;
34988;SDS011;21192;40.182;44.516;2023-03-14T04:16:01;29.40;;;12.63;;
34988;SDS011;21192;40.182;44.516;2023-03-14T04:18:27;26.13;;;11.93;;
34988;SDS011;21192;40.182;44.516;2023-03-14T04:20:55;24.42;;;11.65;;
34988;SDS011;21192;40.182;44.516;2023-03-14T04:23:23;19.55;;;10.88;;
34988;SDS011;21192;40.182;44.516;2023-03-14T04:25:51;22.25;;;11.77;;
34988;SDS011;21192;40.182;44.516;2023-03-14T04:28:18;24.10;;;11.80;;
34988;SDS011;21192;40.182;44.516;2023-03-14T04:30:44;29.60;;;12.75;;
34988;SDS011;21192;40.182;44.516;2023-03-14T04:33:10;26.85;;;11.20;;
34988;SDS011;21192;40.182;44.516;2023-03-14T04:35:37;26.52;;;11.77;;
34988;SDS011;21192;40.182;44.516;2023-03-14T04:38:03;24.65;;;10.98;;
34988;SDS011;21192;40.182;44.516;2023-03-14T04:40:29;26.52;;;10.93;;
34988;SDS011;21192;40.182;44.516;2023-03-14T04:42:55;21.08;;;11.07;;
34988;SDS011;21192;40.182;44.516;2023-03-14T04:45:21;28.75;;;11.95;;
34988;SDS011;21192;40.182;44.516;2023-03-14T04:47:47;22.98;;;10.73;;
34988;SDS011;21192;40.182;44.516;2023-03-14T04:50:12;25.50;;;12.02;;
34988;SDS011;21192;40.182;44.516;2023-03-14T04:52:38;24.15;;;12.82;;
34988;SDS011;21192;40.182;44.516;2023-03-14T04:55:04;25.92;;;11.43;;
34988;SDS011;21192;40.182;44.516;2023-03-14T04:57:30;26.90;;;11.75;;
34988;SDS011;21192;40.182;44.516;2023-03-14T04:59:56;30.58;;;12.43;;
34988;SDS011;21192;40.182;44.516;2023-03-14T05:02:22;29.60;;;11.95;;
34988;SDS011;21192;40.182;44.516;2023-03-14T05:04:47;25.38;;;11.80;;
34988;SDS011;21192;40.182;44.516;2023-03-14T05:07:13;31.67;;;12.93;;
34988;SDS011;21192;40.182;44.516;2023-03-14T05:09:39;31.60;;;12.13;;
34988;SDS011;21192;40.182;44.516;2023-03-14T05:12:05;27.17;;;12.52;;
34988;SDS011;21192;40.182;44.516;2023-03-14T05:14:31;24.48;;;11.25;;
34988;SDS011;21192;40.182;44.516;2023-03-14T05:16:57;28.80;;;13.05;;
34988;SDS011;21192;40.182;44.516;2023-03-14T05:19:22;32.13;;;13.45;;
34988;SDS011;21192;40.182;44.516;2023-03-14T05:21:48;31.92;;;14.18;;
34988;SDS011;21192;40.182;44.516;2023-03-14T05:24:14;36.45;;;13.13;;
34988;SDS011;21192;40.182;44.516;2023-03-14T05:26:40;30.63;;;12.55;;
34988;SDS011;21192;40.182;44.516;2023-03-14T05:29:06;27.70;;;12.00;;
34988;SDS011;21192;40.182;44.516;2023-03-14T05:31:32;30.23;;;13.65;;
34988;SDS011;21192;40.182;44.516;2023-03-14T05:33:57;34.78;;;13.00;;
34988;SDS011;21192;40.182;44.516;2023-03-14T05:36:23;37.42;;;13.38;;
34988;SDS011;21192;40.182;44.516;2023-03-14T05:38:49;34.33;;;13.93;;
34988;SDS011;21192;40.182;44.516;2023-03-14T05:41:15;26.00;;;13.45;;
34988;SDS011;21192;40.182;44.516;2023-03-14T05:43:40;30.02;;;13.45;;
34988;SDS011;21192;40.182;44.516;2023-03-14T05:46:06;34.33;;;13.27;;
34988;SDS011;21192;40.182;44.516;2023-03-14T05:48:32;29.67;;;12.95;;
34988;SDS011;21192;40.182;44.516;2023-03-14T05:50:58;29.90;;;12.35;;
34988;SDS011;21192;40.182;44.516;2023-03-14T05:53:24;36.75;;;13.40;;
34988;SDS011;21192;40.182;44.516;2023-03-14T05:55:51;28.10;;;13.57;;
34988;SDS011;21192;40.182;44.516;2023-03-14T05:58:18;33.70;;;14.57;;
34988;SDS011;21192;40.182;44.516;2023-03-14T06:00:44;32.88;;;14.98;;
34988;SDS011;21192;40.182;44.516;2023-03-14T06:03:10;37.95;;;15.32;;
34988;SDS011;21192;40.182;44.516;2023-03-14T06:05:35;34.75;;;14.95;;
34988;SDS011;21192;40.182;44.516;2023-03-14T06:08:01;32.65;;;14.32;;
34988;SDS011;21192;40.182;44.516;2023-03-14T06:10:27;39.80;;;15.85;;
34988;SDS011;21192;40.182;44.516;2023-03-14T06:12:53;38.17;;;16.70;;
34988;SDS011;21192;40.182;44.516;2023-03-14T06:15:19;40.60;;;17.77;;
34988;SDS011;21192;40.182;44.516;2023-03-14T06:17:45;49.35;;;17.63;;
34988;SDS011;21192;40.182;44.516;2023-03-14T06:20:11;43.08;;;17.40;;
34988;SDS011;21192;40.182;44.516;2023-03-14T06:22:37;46.58;;;16.98;;
34988;SDS011;21192;40.182;44.516;2023-03-14T06:25:04;33.45;;;15.20;;
34988;SDS011;21192;40.182;44.516;2023-03-14T06:27:30;51.25;;;17.65;;
34988;SDS011;21192;40.182;44.516;2023-03-14T06:29:56;48.00;;;17.30;;
34988;SDS011;21192;40.182;44.516;2023-03-14T06:32:22;55.33;;;18.33;;
34988;SDS011;21192;40.182;44.516;2023-03-14T06:34:47;55.50;;;19.42;;
34988;SDS011;21192;40.182;44.516;2023-03-14T06:37:13;57.55;;;19.55;;
34988;SDS011;21192;40.182;44.516;2023-03-14T06:39:39;42.17;;;16.35;;
34988;SDS011;21192;40.182;44.516;2023-03-14T06:42:05;50.15;;;17.48;;
34988;SDS011;21192;40.182;44.516;2023-03-14T06:44:31;39.63;;;14.88;;
34988;SDS011;21192;40.182;44.516;2023-03-14T06:46:57;40.35;;;14.02;;
34988;SDS011;21192;40.182;44.516;2023-03-14T06:49:23;38.03;;;13.82;;
34988;SDS011;21192;40.182;44.516;2023-03-14T06:51:49;42.35;;;12.93;;
34988;SDS011;21192;40.182;44.516;2023-03-14T06:54:14;36.28;;;13.13;;
34988;SDS011;21192;40.182;44.516;2023-03-14T06:56:40;26.73;;;9.70;;
34988;SDS011;21192;40.182;44.516;2023-03-14T06:59:06;23.52;;;9.80;;
34988;SDS011;21192;40.182;44.516;2023-03-14T07:01:32;32.15;;;10.27;;
34988;SDS011;21192;40.182;44.516;2023-03-14T07:03:59;34.17;;;10.00;;
34988;SDS011;21192;40.182;44.516;2023-03-14T07:06:26;23.83;;;9.90;;
34988;SDS011;21192;40.182;44.516;2023-03-14T07:08:54;34.95;;;10.88;;
34988;SDS011;21192;40.182;44.516;2023-03-14T07:11:20;28.10;;;8.95;;
34988;SDS011;21192;40.182;44.516;2023-03-14T07:13:47;39.17;;;10.88;;
34988;SDS011;21192;40.182;44.516;2023-03-14T07:16:13;44.28;;;11.60;;
34988;SDS011;21192;40.182;44.516;2023-03-14T07:18:39;27.77;;;9.75;;
34988;SDS011;21192;40.182;44.516;2023-03-14T07:21:08;29.92;;;9.27;;
34988;SDS011;21192;40.182;44.516;2023-03-14T07:23:34;24.52;;;8.63;;
34988;SDS011;21192;40.182;44.516;2023-03-14T07:26:00;26.50;;;9.27;;
34988;SDS011;21192;40.182;44.516;2023-03-14T07:28:26;28.05;;;8.77;;
34988;SDS011;21192;40.182;44.516;2023-03-14T07:30:53;25.30;;;10.55;;
34988;SDS011;21192;40.182;44.516;2023-03-14T07:33:19;30.25;;;9.82;;
34988;SDS011;21192;40.182;44.516;2023-03-14T07:35:48;29.38;;;9.65;;
34988;SDS011;21192;40.182;44.516;2023-03-14T07:38:15;20.67;;;9.13;;
34988;SDS011;21192;40.182;44.516;2023-03-14T07:40:41;27.58;;;10.25;;
34988;SDS011;21192;40.182;44.516;2023-03-14T07:43:07;25.30;;;10.15;;
34988;SDS011;21192;40.182;44.516;2023-03-14T07:45:33;35.75;;;10.43;;
34988;SDS011;21192;40.182;44.516;2023-03-14T07:47:59;26.15;;;11.02;;
34988;SDS011;21192;40.182;44.516;2023-03-14T07:50:27;30.17;;;11.38;;
34988;SDS011;21192;40.182;44.516;2023-03-14T07:52:53;32.75;;;11.20;;
34988;SDS011;21192;40.182;44.516;2023-03-14T07:55:20;30.77;;;10.80;;
34988;SDS011;21192;40.182;44.516;2023-03-14T07:57:46;37.70;;;12.88;;
34988;SDS011;21192;40.182;44.516;2023-03-14T08:00:12;36.28;;;12.82;;
34988;SDS011;21192;40.182;44.516;2023-03-14T08:02:39;32.50;;;13.48;;
34988;SDS011;21192;40.182;44.516;2023-03-14T08:05:06;46.50;;;14.32;;
34988;SDS011;21192;40.182;44.516;2023-03-14T08:07:32;23.85;;;11.80;;
34988;SDS011;21192;40.182;44.516;2023-03-14T08:09:58;28.48;;;12.35;;
34988;SDS011;21192;40.182;44.516;2023-03-14T08:12:24;24.00;;;11.65;;
34988;SDS011;21192;40.182;44.516;2023-03-14T08:14:49;25.30;;;12.20;;
34988;SDS011;21192;40.182;44.516;2023-03-14T08:17:15;25.38;;;12.07;;
34988;SDS011;21192;40.182;44.516;2023-03-14T08:19:41;38.00;;;14.00;;
34988;SDS011;21192;40.182;44.516;2023-03-14T08:22:07;35.90;;;14.32;;
34988;SDS011;21192;40.182;44.516;2023-03-14T08:24:33;35.05;;;13.68;;
34988;SDS011;21192;40.182;44.516;2023-03-14T08:26:59;32.70;;;14.02;;
34988;SDS011;21192;40.182;44.516;2023-03-14T08:29:25;34.20;;;14.43;;
34988;SDS011;21192;40.182;44.516;2023-03-14T08:31:51;32.70;;;14.90;;
34988;SDS011;21192;40.182;44.516;2023-03-14T08:34:17;31.02;;;14.25;;
34988;SDS011;21192;40.182;44.516;2023-03-14T08:36:43;30.50;;;14.15;;
34988;SDS011;21192;40.182;44.516;2023-03-14T08:39:09;32.67;;;14.00;;
34988;SDS011;21192;40.182;44.516;2023-03-14T08:41:35;34.97;;;16.98;;
34988;SDS011;21192;40.182;44.516;2023-03-14T08:44:09;33.08;;;16.50;;
34988;SDS011;21192;40.182;44.516;2023-03-14T08:46:38;26.88;;;14.70;;
34988;SDS011;21192;40.182;44.516;2023-03-14T08:49:04;27.60;;;14.02;;
34988;SDS011;21192;40.182;44.516;2023-03-14T08:51:30;22.98;;;12.52;;
34988;SDS011;21192;40.182;44.516;2023-03-14T08:53:56;17.75;;;10.02;;
34988;SDS011;21192;40.182;44.516;2023-03-14T08:56:21;27.85;;;14.55;;
34988;SDS011;21192;40.182;44.516;2023-03-14T08:58:47;25.27;;;13.35;;
34988;SDS011;21192;40.182;44.516;2023-03-14T09:01:13;19.48;;;12.85;;
34988;SDS011;21192;40.182;44.516;2023-03-14T09:03:39;24.75;;;11.30;;
34988;SDS011;21192;40.182;44.516;2023-03-14T09:06:06;19.25;;;10.40;;
34988;SDS011;21192;40.182;44.516;2023-03-14T09:08:33;18.42;;;10.02;;
34988;SDS011;21192;40.182;44.516;2023-03-14T09:11:00;22.50;;;10.25;;
34988;SDS011;21192;40.182;44.516;2023-03-14T09:13:26;26.73;;;10.93;;
34988;SDS011;21192;40.182;44.516;2023-03-14T09:15:55;21.98;;;10.98;;
34988;SDS011;21192;40.182;44.516;2023-03-14T09:18:22;23.33;;;11.30;;
34988;SDS011;21192;40.182;44.516;2023-03-14T09:20:48;20.35;;;10.02;;
34988;SDS011;21192;40.182;44.516;2023-03-14T09:23:15;22.33;;;10.38;;
34988;SDS011;21192;40.182;44.516;2023-03-14T09:25:41;20.75;;;10.13;;
34988;SDS011;21192;40.182;44.516;2023-03-14T09:28:07;21.48;;;10.25;;
34988;SDS011;21192;40.182;44.516;2023-03-14T09:30:32;23.77;;;11.77;;
34988;SDS011;21192;40.182;44.516;2023-03-14T09:32:58;23.80;;;11.40;;
34988;SDS011;21192;40.182;44.516;2023-03-14T09:35:24;25.13;;;12.02;;
34988;SDS011;21192;40.182;44.516;2023-03-14T09:37:51;24.25;;;10.32;;
34988;SDS011;21192;40.182;44.516;2023-03-14T09:40:17;19.98;;;9.93;;
34988;SDS011;21192;40.182;44.516;2023-03-14T09:42:45;20.88;;;9.90;;
34988;SDS011;21192;40.182;44.516;2023-03-14T09:47:49;18.73;;;9.55;;
34988;SDS011;21192;40.182;44.516;2023-03-14T09:50:15;13.07;;;7.68;;
34988;SDS011;21192;40.182;44.516;2023-03-14T09:52:58;10.70;;;6.57;;
34988;SDS011;21192;40.182;44.516;2023-03-14T09:55:28;15.05;;;7.28;;
34988;SDS011;21192;40.182;44.516;2023-03-14T09:57:57;16.02;;;7.78;;
34988;SDS011;21192;40.182;44.516;2023-03-14T10:00:28;15.48;;;8.40;;
34988;SDS011;21192;40.182;44.516;2023-03-14T10:02:57;18.02;;;7.32;;
34988;SDS011;21192;40.182;44.516;2023-03-14T10:05:38;16.98;;;7.03;;
34988;SDS011;21192;40.182;44.516;2023-03-14T10:08:10;15.02;;;5.95;;
34988;SDS011;21192;40.182;44.516;2023-03-14T10:10:37;12.85;;;6.30;;
34988;SDS011;21192;40.182;44.516;2023-03-14T10:15:35;14.32;;;6.80;;
34988;SDS011;21192;40.182;44.516;2023-03-14T10:18:03;12.88;;;6.85;;
34988;SDS011;21192;40.182;44.516;2023-03-14T10:20:40;16.67;;;6.90;;
34988;SDS011;21192;40.182;44.516;2023-03-14T10:25:38;15.30;;;8.05;;
34988;SDS011;21192;40.182;44.516;2023-03-14T10:28:27;21.00;;;8.50;;
34988;SDS011;21192;40.182;44.516;2023-03-14T10:30:57;13.45;;;7.30;;
34988;SDS011;21192;40.182;44.516;2023-03-14T10:33:25;17.85;;;10.30;;
34988;SDS011;21192;40.182;44.516;2023-03-14T10:35:53;14.23;;;7.20;;
34988;SDS011;21192;40.182;44.516;2023-03-14T10:38:31;14.75;;;6.72;;
34988;SDS011;21192;40.182;44.516;2023-03-14T10:40:58;19.25;;;6.93;;
34988;SDS011;21192;40.182;44.516;2023-03-14T10:43:30;17.45;;;6.68;;
34988;SDS011;21192;40.182;44.516;2023-03-14T10:45:59;15.27;;;6.88;;
34988;SDS011;21192;40.182;44.516;2023-03-14T10:48:32;15.18;;;7.13;;
34988;SDS011;21192;40.182;44.516;2023-03-14T10:53:41;13.77;;;6.90;;
34988;SDS011;21192;40.182;44.516;2023-03-14T10:56:13;16.73;;;7.13;;
34988;SDS011;21192;40.182;44.516;2023-03-14T10:58:44;14.95;;;6.80;;
34988;SDS011;21192;40.182;44.516;2023-03-14T11:11:48;16.70;;;7.30;;
34988;SDS011;21192;40.182;44.516;2023-03-14T11:17:41;15.93;;;7.45;;
34988;SDS011;21192;40.182;44.516;2023-03-14T11:27:48;14.73;;;7.05;;
34988;SDS011;21192;40.182;44.516;2023-03-14T11:36:12;11.45;;;5.75;;
34988;SDS011;21192;40.182;44.516;2023-03-14T11:38:52;12.32;;;5.53;;
34988;SDS011;21192;40.182;44.516;2023-03-14T11:41:27;13.10;;;5.00;;
34988;SDS011;21192;40.182;44.516;2023-03-14T11:44:04;12.13;;;6.07;;
34988;SDS011;21192;40.182;44.516;2023-03-14T11:46:42;14.85;;;6.88;;
34988;SDS011;21192;40.182;44.516;2023-03-14T11:51:56;16.90;;;7.35;;
34988;SDS011;21192;40.182;44.516;2023-03-14T11:57:25;17.45;;;7.53;;
34988;SDS011;21192;40.182;44.516;2023-03-14T12:08:22;13.93;;;5.53;;
34988;SDS011;21192;40.182;44.516;2023-03-14T12:11:11;13.27;;;6.30;;
34988;SDS011;21192;40.182;44.516;2023-03-14T12:13:38;17.73;;;5.22;;
34988;SDS011;21192;40.182;44.516;2023-03-14T12:16:52;10.32;;;5.38;;
34988;SDS011;21192;40.182;44.516;2023-03-14T12:19:15;9.70;;;5.32;;
34988;SDS011;21192;40.182;44.516;2023-03-14T12:21:48;14.07;;;6.55;;
34988;SDS011;21192;40.182;44.516;2023-03-14T12:24:23;13.32;;;5.78;;
34988;SDS011;21192;40.182;44.516;2023-03-14T12:26:53;15.57;;;6.75;;
34988;SDS011;21192;40.182;44.516;2023-03-14T12:29:26;13.30;;;5.45;;
34988;SDS011;21192;40.182;44.516;2023-03-14T12:32:06;12.18;;;5.78;;
34988;SDS011;21192;40.182;44.516;2023-03-14T12:34:39;13.68;;;5.45;;
34988;SDS011;21192;40.182;44.516;2023-03-14T12:39:50;17.25;;;7.35;;
34988;SDS011;21192;40.182;44.516;2023-03-14T12:45:27;14.02;;;5.72;;
34988;SDS011;21192;40.182;44.516;2023-03-14T12:56:26;24.58;;;6.60;;
34988;SDS011;21192;40.182;44.516;2023-03-14T12:59:45;20.80;;;5.90;;
34988;SDS011;21192;40.182;44.516;2023-03-14T13:04:32;17.25;;;7.18;;
34988;SDS011;21192;40.182;44.516;2023-03-14T13:07:01;12.68;;;5.55;;
34988;SDS011;21192;40.182;44.516;2023-03-14T13:12:07;14.65;;;6.55;;
34988;SDS011;21192;40.182;44.516;2023-03-14T13:14:35;15.32;;;7.50;;
34988;SDS011;21192;40.182;44.516;2023-03-14T13:17:10;16.92;;;7.07;;
34988;SDS011;21192;40.182;44.516;2023-03-14T13:19:37;20.20;;;7.05;;
34988;SDS011;21192;40.182;44.516;2023-03-14T13:22:04;15.50;;;6.70;;
34988;SDS011;21192;40.182;44.516;2023-03-14T13:24:49;16.40;;;6.13;;
34988;SDS011;21192;40.182;44.516;2023-03-14T13:27:18;15.93;;;6.82;;
34988;SDS011;21192;40.182;44.516;2023-03-14T13:29:48;23.13;;;7.15;;
34988;SDS011;21192;40.182;44.516;2023-03-14T13:32:22;16.98;;;7.07;;
34988;SDS011;21192;40.182;44.516;2023-03-14T13:34:51;15.63;;;7.20;;
34988;SDS011;21192;40.182;44.516;2023-03-14T13:37:22;16.98;;;5.47;;
34988;SDS011;21192;40.182;44.516;2023-03-14T13:39:54;14.57;;;5.95;;
34988;SDS011;21192;40.182;44.516;2023-03-14T13:42:25;17.85;;;5.45;;
34988;SDS011;21192;40.182;44.516;2023-03-14T13:44:53;21.92;;;7.55;;
34988;SDS011;21192;40.182;44.516;2023-03-14T13:47:21;34.60;;;7.75;;
34988;SDS011;21192;40.182;44.516;2023-03-14T13:49:49;19.10;;;6.80;;
34988;SDS011;21192;40.182;44.516;2023-03-14T13:54:52;17.45;;;5.40;;
34988;SDS011;21192;40.182;44.516;2023-03-14T13:57:21;12.90;;;7.03;;
34988;SDS011;21192;40.182;44.516;2023-03-14T14:00:00;19.10;;;8.15;;
34988;SDS011;21192;40.182;44.516;2023-03-14T14:02:33;20.63;;;8.40;;
34988;SDS011;21192;40.182;44.516;2023-03-14T14:05:01;17.90;;;7.22;;
34988;SDS011;21192;40.182;44.516;2023-03-14T14:07:28;15.00;;;6.93;;
34988;SDS011;21192;40.182;44.516;2023-03-14T14:09:54;24.25;;;8.43;;
34988;SDS011;21192;40.182;44.516;2023-03-14T14:12:23;18.60;;;7.47;;
34988;SDS011;21192;40.182;44.516;2023-03-14T14:20:04;19.73;;;6.75;;
34988;SDS011;21192;40.182;44.516;2023-03-14T14:22:33;17.65;;;7.60;;
34988;SDS011;21192;40.182;44.516;2023-03-14T14:25:00;14.65;;;6.80;;
34988;SDS011;21192;40.182;44.516;2023-03-14T14:27:33;22.23;;;7.63;;
34988;SDS011;21192;40.182;44.516;2023-03-14T14:30:06;21.35;;;8.10;;
34988;SDS011;21192;40.182;44.516;2023-03-14T14:32:53;23.75;;;9.27;;
34988;SDS011;21192;40.182;44.516;2023-03-14T14:35:59;24.98;;;11.93;;
34988;SDS011;21192;40.182;44.516;2023-03-14T14:38:26;22.20;;;8.85;;
34988;SDS011;21192;40.182;44.516;2023-03-14T14:41:00;15.60;;;8.07;;
34988;SDS011;21192;40.182;44.516;2023-03-14T14:43:28;20.33;;;9.82;;
34988;SDS011;21192;40.182;44.516;2023-03-14T14:45:59;22.10;;;10.00;;
34988;SDS011;21192;40.182;44.516;2023-03-14T14:48:26;20.42;;;8.52;;
34988;SDS011;21192;40.182;44.516;2023-03-14T14:51:00;19.13;;;7.50;;
34988;SDS011;21192;40.182;44.516;2023-03-14T14:53:29;14.18;;;7.30;;
34988;SDS011;21192;40.182;44.516;2023-03-14T14:56:03;17.77;;;7.15;;
34988;SDS011;21192;40.182;44.516;2023-03-14T14:58:36;16.83;;;8.88;;
34988;SDS011;21192;40.182;44.516;2023-03-14T15:01:11;18.23;;;8.15;;
34988;SDS011;21192;40.182;44.516;2023-03-14T15:03:41;20.05;;;7.35;;
34988;SDS011;21192;40.182;44.516;2023-03-14T15:06:10;19.30;;;7.68;;
34988;SDS011;21192;40.182;44.516;2023-03-14T15:08:38;17.50;;;7.53;;
34988;SDS011;21192;40.182;44.516;2023-03-14T15:11:03;16.92;;;7.47;;
34988;SDS011;21192;40.182;44.516;2023-03-14T15:13:30;18.42;;;8.32;;
34988;SDS011;21192;40.182;44.516;2023-03-14T15:15:56;21.65;;;9.18;;
34988;SDS011;21192;40.182;44.516;2023-03-14T15:18:25;17.17;;;10.48;;
34988;SDS011;21192;40.182;44.516;2023-03-14T15:20:54;23.95;;;10.32;;
34988;SDS011;21192;40.182;44.516;2023-03-14T15:23:20;30.02;;;11.30;;
34988;SDS011;21192;40.182;44.516;2023-03-14T15:25:47;34.80;;;14.25;;
34988;SDS011;21192;40.182;44.516;2023-03-14T15:28:18;37.28;;;15.98;;
34988;SDS011;21192;40.182;44.516;2023-03-14T15:30:49;42.63;;;19.75;;
34988;SDS011;21192;40.182;44.516;2023-03-14T15:33:17;47.70;;;19.63;;
34988;SDS011;21192;40.182;44.516;2023-03-14T15:35:43;48.17;;;19.83;;
34988;SDS011;21192;40.182;44.516;2023-03-14T15:38:13;47.83;;;18.23;;
34988;SDS011;21192;40.182;44.516;2023-03-14T15:40:41;44.30;;;19.33;;
34988;SDS011;21192;40.182;44.516;2023-03-14T15:43:08;46.50;;;20.02;;
34988;SDS011;21192;40.182;44.516;2023-03-14T15:45:34;45.92;;;21.65;;
34988;SDS011;21192;40.182;44.516;2023-03-14T15:48:00;51.75;;;22.67;;
34988;SDS011;21192;40.182;44.516;2023-03-14T15:50:26;50.13;;;24.77;;